createdAt,value
2023-08-29T00:00:53.931Z,12.21
2023-08-29T00:03:20.566Z,12.25
2023-08-29T00:05:47.295Z,12.24
2023-08-29T00:08:13.958Z,12.28
2023-08-29T00:10:40.606Z,12.30
2023-08-29T00:13:07.170Z,12.30
2023-08-29T00:15:33.889Z,12.31
2023-08-29T00:18:01.459Z,12.32
2023-08-29T00:20:28.155Z,12.35
2023-08-29T00:22:54.792Z,12.34
2023-08-29T00:25:21.405Z,12.36
2023-08-29T00:27:47.999Z,12.41
2023-08-29T00:30:14.711Z,12.43
2023-08-29T00:32:43.100Z,12.44
2023-08-29T00:35:09.936Z,12.43
2023-08-29T00:37:36.568Z,12.41
2023-08-29T00:40:03.381Z,12.45
2023-08-29T00:42:30.670Z,12.46
2023-08-29T00:44:57.277Z,12.51
2023-08-29T00:47:24.116Z,12.54
2023-08-29T00:49:51.352Z,12.49
2023-08-29T00:52:18.054Z,12.45
2023-08-29T00:54:44.645Z,12.44
2023-08-29T00:57:11.378Z,12.47
2023-08-29T00:59:38.167Z,12.47
2023-08-29T01:02:05.313Z,12.46
2023-08-29T01:04:32.221Z,12.44
2023-08-29T01:06:59.217Z,12.41
2023-08-29T01:09:27.041Z,12.40
2023-08-29T01:12:03.944Z,12.40
2023-08-29T01:14:30.504Z,12.38
2023-08-29T01:17:04.859Z,12.34
2023-08-29T01:19:33.007Z,12.31
2023-08-29T01:22:09.044Z,12.29
2023-08-29T01:24:42.222Z,12.27
2023-08-29T01:27:09.142Z,12.28
2023-08-29T01:29:36.757Z,12.27
2023-08-29T01:32:04.383Z,12.28
2023-08-29T01:34:31.062Z,12.29
2023-08-29T01:36:57.645Z,12.27
2023-08-29T01:39:24.293Z,12.25
2023-08-29T01:41:50.912Z,12.25
2023-08-29T01:44:17.526Z,12.27
2023-08-29T01:46:44.108Z,12.26
2023-08-29T01:49:10.799Z,12.24
2023-08-29T01:51:37.552Z,12.25
2023-08-29T01:54:04.428Z,12.25
2023-08-29T01:56:31.595Z,12.26
2023-08-29T01:59:00.106Z,12.26
2023-08-29T02:01:26.861Z,12.28
2023-08-29T02:03:53.597Z,12.32
2023-08-29T02:06:20.475Z,12.33
2023-08-29T02:08:47.249Z,12.34
2023-08-29T02:11:13.915Z,12.38
2023-08-29T02:13:40.487Z,12.40
2023-08-29T02:16:07.105Z,12.40
2023-08-29T02:18:33.783Z,12.44
2023-08-29T02:21:00.408Z,12.44
2023-08-29T02:23:27.033Z,12.43
2023-08-29T02:26:11.546Z,12.33
2023-08-29T02:28:39.178Z,12.26
2023-08-29T02:31:07.098Z,12.24
2023-08-29T02:33:36.482Z,12.21
2023-08-29T02:36:05.673Z,12.16
2023-08-29T02:38:32.628Z,12.13
2023-08-29T02:40:59.262Z,12.14
2023-08-29T02:43:26.632Z,12.16
2023-08-29T02:45:53.329Z,12.18
2023-08-29T02:48:19.939Z,12.22
2023-08-29T02:50:49.502Z,12.23
2023-08-29T02:53:19.516Z,12.24
2023-08-29T02:55:46.328Z,12.26
2023-08-29T02:58:12.883Z,12.29
2023-08-29T03:00:39.502Z,12.31
2023-08-29T03:03:06.280Z,12.30
2023-08-29T03:05:33.431Z,12.29
2023-08-29T03:08:00.703Z,12.28
2023-08-29T03:10:27.398Z,12.26
2023-08-29T03:12:54.277Z,12.27
2023-08-29T03:15:21.005Z,12.28
2023-08-29T03:17:48.553Z,12.27
2023-08-29T03:20:16.911Z,12.25
2023-08-29T03:22:43.671Z,12.20
2023-08-29T03:25:10.788Z,12.22
2023-08-29T03:27:37.502Z,12.25
2023-08-29T03:30:04.347Z,12.26
2023-08-29T03:32:32.026Z,12.26
2023-08-29T03:34:59.649Z,12.22
2023-08-29T03:37:26.344Z,12.19
2023-08-29T03:39:55.724Z,12.21
2023-08-29T03:42:22.289Z,12.23
2023-08-29T03:44:48.983Z,12.28
2023-08-29T03:47:15.579Z,12.32
2023-08-29T03:49:42.225Z,12.38
2023-08-29T03:52:08.815Z,12.44
2023-08-29T03:54:35.420Z,12.44
2023-08-29T03:57:02.012Z,12.46
2023-08-29T03:59:28.586Z,12.48
2023-08-29T04:01:55.249Z,12.49
2023-08-29T04:04:22.061Z,12.53
2023-08-29T04:06:48.756Z,12.60
2023-08-29T04:09:15.699Z,12.63
2023-08-29T04:11:42.539Z,12.69
2023-08-29T04:14:09.273Z,12.78
2023-08-29T04:16:36.039Z,12.82
2023-08-29T04:19:02.744Z,12.85
2023-08-29T04:21:30.162Z,12.87
2023-08-29T04:23:56.763Z,12.89
2023-08-29T04:26:23.388Z,12.90
2023-08-29T04:28:50.209Z,12.90
2023-08-29T04:31:18.648Z,12.93
2023-08-29T04:33:45.290Z,13.00
2023-08-29T04:36:11.945Z,13.05
2023-08-29T04:38:38.620Z,13.08
2023-08-29T04:41:05.288Z,13.12
2023-08-29T04:43:31.882Z,13.15
2023-08-29T04:45:58.484Z,13.20
2023-08-29T04:48:25.206Z,13.24
2023-08-29T04:50:51.900Z,13.28
2023-08-29T04:53:18.487Z,13.30
2023-08-29T04:55:45.110Z,13.36
2023-08-29T04:58:11.683Z,13.39
2023-08-29T05:00:38.380Z,13.43
2023-08-29T05:03:05.809Z,13.47
2023-08-29T05:05:32.643Z,13.42
2023-08-29T05:07:59.378Z,13.46
2023-08-29T05:10:26.202Z,13.53
2023-08-29T05:12:53.275Z,13.56
2023-08-29T05:15:19.915Z,13.63
2023-08-29T05:17:46.631Z,13.68
2023-08-29T05:20:13.748Z,13.70
2023-08-29T05:22:40.437Z,13.71
2023-08-29T05:25:07.520Z,13.73
2023-08-29T05:27:34.865Z,13.77
2023-08-29T05:30:01.436Z,13.79
2023-08-29T05:32:28.186Z,13.82
2023-08-29T05:34:54.811Z,13.84
2023-08-29T05:37:21.461Z,13.83
2023-08-29T05:39:48.063Z,13.83
2023-08-29T05:42:14.725Z,13.81
2023-08-29T05:44:41.456Z,13.82
2023-08-29T05:47:08.055Z,13.85
2023-08-29T05:49:35.320Z,13.92
2023-08-29T05:52:01.905Z,13.96
2023-08-29T05:54:29.519Z,14.03
2023-08-29T05:56:56.167Z,14.04
2023-08-29T05:59:22.763Z,14.05
2023-08-29T06:01:49.877Z,14.05
2023-08-29T06:04:16.518Z,14.05
2023-08-29T06:06:44.745Z,14.08
2023-08-29T06:09:11.553Z,14.11
2023-08-29T06:11:38.531Z,14.15
2023-08-29T06:14:05.143Z,14.13
2023-08-29T06:16:31.827Z,14.19
2023-08-29T06:18:58.505Z,14.23
2023-08-29T06:21:25.141Z,14.28
2023-08-29T06:23:51.830Z,14.32
2023-08-29T06:26:18.413Z,14.32
2023-08-29T06:28:45.182Z,14.36
2023-08-29T06:31:11.821Z,14.37
2023-08-29T06:33:38.789Z,14.38
2023-08-29T06:36:05.959Z,14.38
2023-08-29T06:38:34.708Z,14.45
2023-08-29T06:41:02.319Z,14.53
2023-08-29T06:43:28.893Z,14.58
2023-08-29T06:45:55.549Z,14.62
2023-08-29T06:48:22.154Z,14.67
2023-08-29T06:50:48.778Z,14.70
2023-08-29T06:53:15.409Z,14.74
2023-08-29T06:55:41.995Z,14.76
2023-08-29T06:58:10.732Z,14.76
2023-08-29T07:00:37.506Z,14.79
2023-08-29T07:03:05.600Z,14.83
2023-08-29T07:05:32.463Z,14.90
2023-08-29T07:08:00.795Z,14.92
2023-08-29T07:10:27.564Z,14.96
2023-08-29T07:12:54.163Z,15.02
2023-08-29T07:15:20.767Z,15.07
2023-08-29T07:17:47.365Z,15.14
2023-08-29T07:20:14.683Z,15.21
2023-08-29T07:22:44.743Z,15.29
2023-08-29T07:25:12.326Z,15.38
2023-08-29T07:27:38.952Z,15.42
2023-08-29T07:30:05.979Z,15.46
2023-08-29T07:32:32.647Z,15.55
2023-08-29T07:34:59.689Z,15.61
2023-08-29T07:37:26.330Z,15.68
2023-08-29T07:39:52.888Z,15.79
2023-08-29T07:42:19.433Z,15.87
2023-08-29T07:44:46.125Z,15.94
2023-08-29T07:47:15.512Z,15.98
2023-08-29T07:49:43.001Z,16.00
2023-08-29T07:52:09.810Z,15.99
2023-08-29T07:54:36.670Z,15.98
2023-08-29T07:57:03.498Z,16.02
2023-08-29T07:59:30.154Z,16.02
2023-08-29T08:01:57.266Z,16.01
2023-08-29T08:04:24.503Z,15.96
2023-08-29T08:06:54.276Z,15.92
2023-08-29T08:09:20.950Z,15.83
2023-08-29T08:11:47.753Z,15.79
2023-08-29T08:14:14.473Z,15.77
2023-08-29T08:16:41.327Z,15.77
2023-08-29T08:19:08.768Z,15.77
2023-08-29T08:21:35.585Z,15.79
2023-08-29T08:24:02.538Z,15.84
2023-08-29T08:26:29.252Z,15.90
2023-08-29T08:28:56.159Z,15.91
2023-08-29T08:31:23.042Z,15.88
2023-08-29T08:33:49.706Z,15.88
2023-08-29T08:36:16.344Z,15.87
2023-08-29T08:38:42.925Z,15.86
2023-08-29T08:41:13.741Z,15.84
2023-08-29T08:43:42.448Z,15.81
2023-08-29T08:46:09.696Z,15.86
2023-08-29T08:48:37.607Z,15.90
2023-08-29T08:51:05.383Z,15.91
2023-08-29T08:53:32.152Z,15.92
2023-08-29T08:55:58.789Z,15.91
2023-08-29T08:58:25.478Z,15.93
2023-08-29T09:00:52.907Z,15.92
2023-08-29T09:03:21.227Z,15.86
2023-08-29T09:05:48.054Z,15.83
2023-08-29T09:08:14.857Z,15.81
2023-08-29T09:10:41.536Z,15.83
2023-08-29T09:13:14.891Z,15.89
2023-08-29T09:15:41.637Z,15.91
2023-08-29T09:18:09.908Z,15.93
2023-08-29T09:20:36.711Z,15.93
2023-08-29T09:23:03.312Z,15.92
2023-08-29T09:25:29.932Z,15.87
2023-08-29T09:27:56.782Z,15.83
2023-08-29T09:30:24.232Z,15.84
2023-08-29T09:32:54.143Z,15.91
2023-08-29T09:35:23.308Z,15.98
2023-08-29T09:37:54.334Z,15.97
2023-08-29T09:40:38.265Z,15.99
2023-08-29T09:43:06.454Z,16.04
2023-08-29T09:45:34.105Z,16.12
2023-08-29T09:48:04.839Z,16.18
2023-08-29T09:50:32.155Z,16.26
2023-08-29T09:52:59.279Z,16.34
2023-08-29T09:55:27.234Z,16.41
2023-08-29T09:57:54.431Z,16.49
2023-08-29T10:00:21.914Z,16.53
2023-08-29T10:02:49.434Z,16.55
2023-08-29T10:05:17.214Z,16.60
2023-08-29T10:07:47.058Z,16.65
2023-08-29T10:10:13.939Z,16.67
2023-08-29T10:12:40.856Z,16.57
2023-08-29T10:15:09.355Z,16.52
2023-08-29T10:17:36.839Z,16.44
2023-08-29T10:20:11.461Z,16.42
2023-08-29T10:22:38.763Z,16.35
2023-08-29T10:25:05.674Z,16.29
2023-08-29T10:27:32.932Z,16.27
2023-08-29T10:30:00.031Z,16.28
2023-08-29T10:32:28.100Z,16.25
2023-08-29T10:34:54.848Z,16.28
2023-08-29T10:37:22.303Z,16.38
2023-08-29T10:39:52.201Z,16.42
2023-08-29T10:42:19.158Z,16.46
2023-08-29T10:44:47.824Z,16.47
2023-08-29T10:47:24.910Z,16.46
2023-08-29T10:50:06.842Z,16.54
2023-08-29T10:52:37.735Z,16.59
2023-08-29T10:55:07.901Z,16.61
2023-08-29T10:57:34.520Z,16.69
2023-08-29T11:00:01.306Z,16.77
2023-08-29T11:02:28.905Z,16.82
2023-08-29T11:05:04.919Z,16.79
2023-08-29T11:07:32.610Z,16.77
2023-08-29T11:10:15.743Z,16.71
2023-08-29T11:13:01.290Z,16.65
2023-08-29T11:15:46.729Z,16.60
2023-08-29T11:18:25.455Z,16.64
2023-08-29T11:20:52.927Z,16.66
2023-08-29T11:23:20.439Z,16.64
2023-08-29T11:25:53.545Z,16.67
2023-08-29T11:28:20.152Z,16.72
2023-08-29T11:30:47.150Z,16.80
2023-08-29T11:33:14.091Z,16.82
2023-08-29T11:35:40.719Z,16.84
2023-08-29T11:38:07.739Z,16.79
2023-08-29T11:40:50.304Z,16.78
2023-08-29T11:43:45.261Z,16.75
2023-08-29T11:46:09.377Z,16.70
2023-08-29T11:48:36.201Z,16.64
2023-08-29T11:51:08.763Z,16.60
2023-08-29T11:53:37.562Z,16.59
2023-08-29T11:56:05.245Z,16.57
2023-08-29T11:58:33.080Z,16.52
2023-08-29T12:01:02.084Z,16.52
2023-08-29T12:03:28.881Z,16.48
2023-08-29T12:05:59.166Z,16.49
2023-08-29T12:08:39.510Z,16.48
2023-08-29T12:11:07.779Z,16.46
2023-08-29T12:13:35.872Z,16.47
2023-08-29T12:16:03.703Z,16.48
2023-08-29T12:18:30.544Z,16.47
2023-08-29T12:21:13.132Z,16.40
2023-08-29T12:23:39.731Z,16.39
2023-08-29T12:26:06.433Z,16.34
2023-08-29T12:28:33.141Z,16.29
2023-08-29T12:30:59.843Z,16.25
2023-08-29T12:33:26.499Z,16.17
2023-08-29T12:35:53.150Z,16.11
2023-08-29T12:38:19.768Z,16.03
2023-08-29T12:40:46.587Z,15.98
2023-08-29T12:43:14.225Z,15.92
2023-08-29T12:45:52.748Z,15.92
2023-08-29T12:48:25.467Z,15.99
2023-08-29T12:50:52.131Z,15.98
2023-08-29T12:53:18.729Z,15.90
2023-08-29T12:55:45.465Z,15.77
2023-08-29T12:58:12.099Z,15.73
2023-08-29T13:00:39.427Z,15.73
2023-08-29T13:03:06.872Z,15.73
2023-08-29T13:05:33.669Z,15.74
2023-08-29T13:08:00.350Z,15.72
2023-08-29T13:10:27.064Z,15.73
2023-08-29T13:12:53.763Z,15.75
2023-08-29T13:15:20.383Z,15.77
2023-08-29T13:17:48.252Z,15.75
2023-08-29T13:20:14.954Z,15.70
2023-08-29T13:22:41.907Z,15.63
2023-08-29T13:25:08.798Z,15.59
2023-08-29T13:27:36.097Z,15.57
2023-08-29T13:30:02.912Z,15.60
2023-08-29T13:32:31.978Z,15.61
2023-08-29T13:34:58.752Z,15.63
2023-08-29T13:37:25.758Z,15.64
2023-08-29T13:39:59.145Z,15.64
2023-08-29T13:42:25.938Z,15.65
2023-08-29T13:44:56.884Z,15.67
2023-08-29T13:47:23.677Z,15.72
2023-08-29T13:49:50.451Z,15.75
2023-08-29T13:52:17.001Z,15.79
2023-08-29T13:54:43.603Z,15.82
2023-08-29T13:57:10.223Z,15.82
2023-08-29T13:59:36.809Z,15.76
2023-08-29T14:02:03.727Z,15.69
2023-08-29T14:04:30.340Z,15.57
2023-08-29T14:06:57.867Z,15.50
2023-08-29T14:09:24.528Z,15.44
2023-08-29T14:11:51.268Z,15.36
2023-08-29T14:14:18.393Z,15.37
2023-08-29T14:16:45.011Z,15.39
2023-08-29T14:19:11.717Z,15.46
2023-08-29T14:21:41.667Z,15.57
2023-08-29T14:24:08.902Z,15.67
2023-08-29T14:26:35.537Z,15.70
2023-08-29T14:29:02.279Z,15.71
2023-08-29T14:31:28.937Z,15.73
2023-08-29T14:33:55.623Z,15.71
2023-08-29T14:36:22.306Z,15.65
2023-08-29T14:38:48.986Z,15.62
2023-08-29T14:41:15.736Z,15.62
2023-08-29T14:43:42.718Z,15.64
2023-08-29T14:46:09.758Z,15.65
2023-08-29T14:48:38.033Z,15.67
2023-08-29T14:51:08.133Z,15.64
2023-08-29T14:53:35.429Z,15.68
2023-08-29T14:56:03.783Z,15.72
2023-08-29T14:58:32.716Z,15.74
2023-08-29T15:00:59.447Z,15.74
2023-08-29T15:03:26.286Z,15.75
2023-08-29T15:05:59.644Z,15.77
2023-08-29T15:08:27.267Z,15.79
2023-08-29T15:10:54.542Z,15.84
2023-08-29T15:13:21.846Z,15.84
2023-08-29T15:15:48.722Z,15.85
2023-08-29T15:18:15.935Z,15.85
2023-08-29T15:20:43.564Z,15.89
2023-08-29T15:23:11.005Z,15.91
2023-08-29T15:25:37.755Z,15.92
2023-08-29T15:28:04.854Z,15.89
2023-08-29T15:30:32.349Z,15.80
2023-08-29T15:32:59.424Z,15.82
2023-08-29T15:35:26.061Z,15.83
2023-08-29T15:37:52.702Z,15.81
2023-08-29T15:40:19.427Z,15.80
2023-08-29T15:42:46.206Z,15.84
2023-08-29T15:45:12.796Z,15.88
2023-08-29T15:47:39.616Z,15.85
2023-08-29T15:50:06.630Z,15.83
2023-08-29T15:52:33.255Z,15.83
2023-08-29T15:54:59.852Z,15.78
2023-08-29T15:57:26.737Z,15.76
2023-08-29T15:59:53.401Z,15.73
2023-08-29T16:02:20.007Z,15.73
2023-08-29T16:04:46.854Z,15.74
2023-08-29T16:07:13.516Z,15.74
2023-08-29T16:09:40.094Z,15.71
2023-08-29T16:12:06.981Z,15.68
2023-08-29T16:14:33.682Z,15.67
2023-08-29T16:17:02.667Z,15.67
2023-08-29T16:19:29.613Z,15.65
2023-08-29T16:21:56.255Z,15.67
2023-08-29T16:24:22.910Z,15.69
2023-08-29T16:26:49.586Z,15.68
2023-08-29T16:29:17.249Z,15.65
2023-08-29T16:31:44.249Z,15.67
2023-08-29T16:34:10.892Z,15.70
2023-08-29T16:36:37.618Z,15.69
2023-08-29T16:39:06.187Z,15.64
2023-08-29T16:41:32.895Z,15.58
2023-08-29T16:43:59.766Z,15.54
2023-08-29T16:46:26.940Z,15.52
2023-08-29T16:48:53.630Z,15.53
2023-08-29T16:51:20.282Z,15.54
2023-08-29T16:53:46.898Z,15.54
2023-08-29T16:56:13.504Z,15.53
2023-08-29T16:58:40.086Z,15.50
2023-08-29T17:01:07.001Z,15.50
2023-08-29T17:03:33.706Z,15.52
2023-08-29T17:06:00.400Z,15.50
2023-08-29T17:08:27.013Z,15.50
2023-08-29T17:10:53.672Z,15.50
2023-08-29T17:13:20.481Z,15.48
2023-08-29T17:15:47.097Z,15.48
2023-08-29T17:18:13.878Z,15.48
2023-08-29T17:20:40.496Z,15.43
2023-08-29T17:23:07.126Z,15.37
2023-08-29T17:25:33.911Z,15.35
2023-08-29T17:28:00.556Z,15.33
2023-08-29T17:30:27.200Z,15.34
2023-08-29T17:32:53.843Z,15.29
2023-08-29T17:35:20.463Z,15.24
2023-08-29T17:37:47.138Z,15.20
2023-08-29T17:40:14.202Z,15.17
2023-08-29T17:42:41.068Z,15.16
2023-08-29T17:45:09.501Z,15.14
2023-08-29T17:47:36.720Z,15.12
2023-08-29T17:50:04.505Z,15.11
2023-08-29T17:52:31.432Z,15.12
2023-08-29T17:54:58.367Z,15.13
2023-08-29T17:57:25.188Z,15.14
2023-08-29T18:00:00.637Z,15.17
2023-08-29T18:02:27.690Z,15.21
2023-08-29T18:04:54.593Z,15.21
2023-08-29T18:07:21.713Z,15.18
2023-08-29T18:10:06.199Z,15.21
2023-08-29T18:12:33.476Z,15.25
2023-08-29T18:15:00.500Z,15.27
2023-08-29T18:17:27.256Z,15.28
2023-08-29T18:19:54.292Z,15.30
2023-08-29T18:22:21.112Z,15.31
2023-08-29T18:24:47.762Z,15.33
2023-08-29T18:27:14.449Z,15.37
2023-08-29T18:29:41.603Z,15.40
2023-08-29T18:32:09.335Z,15.41
2023-08-29T18:34:36.769Z,15.43
2023-08-29T18:37:04.662Z,15.44
2023-08-29T18:39:31.391Z,15.43
2023-08-29T18:41:58.135Z,15.43
2023-08-29T18:44:24.812Z,15.45
2023-08-29T18:46:52.073Z,15.49
2023-08-29T18:49:18.856Z,15.51
2023-08-29T18:51:45.467Z,15.54
2023-08-29T18:54:12.082Z,15.56
2023-08-29T18:56:38.740Z,15.60
2023-08-29T18:59:05.374Z,15.65
2023-08-29T19:01:31.991Z,15.62
2023-08-29T19:03:58.704Z,15.61
2023-08-29T19:06:25.361Z,15.60
2023-08-29T19:08:52.832Z,15.61
2023-08-29T19:11:19.497Z,15.59
2023-08-29T19:13:46.225Z,15.59
2023-08-29T19:16:12.991Z,15.64
2023-08-29T19:18:40.449Z,15.69
2023-08-29T19:21:07.433Z,15.71
2023-08-29T19:23:34.090Z,15.71
2023-08-29T19:26:00.793Z,15.68
2023-08-29T19:28:27.479Z,15.68
2023-08-29T19:30:57.206Z,15.69
2023-08-29T19:33:23.956Z,15.68
2023-08-29T19:35:50.783Z,15.65
2023-08-29T19:38:18.099Z,15.64
2023-08-29T19:40:44.782Z,15.64
2023-08-29T19:43:11.474Z,15.70
2023-08-29T19:45:38.125Z,15.68
2023-08-29T19:48:05.509Z,15.69
2023-08-29T19:50:32.385Z,15.67
2023-08-29T19:52:59.185Z,15.65
2023-08-29T19:55:29.768Z,15.65
2023-08-29T19:57:56.476Z,15.68
2023-08-29T20:00:23.056Z,15.69
2023-08-29T20:02:49.729Z,15.69
2023-08-29T20:05:19.676Z,15.73
2023-08-29T20:07:47.161Z,15.75
2023-08-29T20:10:13.822Z,15.76
2023-08-29T20:12:41.704Z,15.73
2023-08-29T20:15:08.821Z,15.73
2023-08-29T20:17:35.414Z,15.77
2023-08-29T20:20:02.237Z,15.78
2023-08-29T20:22:29.953Z,15.81
2023-08-29T20:24:56.606Z,15.84
2023-08-29T20:27:23.231Z,15.86
2023-08-29T20:29:50.467Z,15.83
2023-08-29T20:32:17.411Z,15.83
2023-08-29T20:34:44.056Z,15.83
2023-08-29T20:37:10.799Z,15.83
2023-08-29T20:39:38.806Z,15.84
2023-08-29T20:42:05.759Z,15.84
2023-08-29T20:44:35.244Z,15.84
2023-08-29T20:47:02.028Z,15.87
2023-08-29T20:49:30.432Z,15.87
2023-08-29T20:51:57.022Z,15.87
2023-08-29T20:54:23.654Z,15.87
2023-08-29T20:56:50.465Z,15.82
2023-08-29T20:59:19.181Z,15.79
2023-08-29T21:01:49.221Z,15.80
2023-08-29T21:04:15.961Z,15.81
2023-08-29T21:06:42.607Z,15.83
2023-08-29T21:09:11.730Z,15.86
2023-08-29T21:11:38.655Z,15.86
2023-08-29T21:14:05.313Z,15.88
2023-08-29T21:16:32.432Z,15.92
2023-08-29T21:18:59.313Z,15.92
2023-08-29T21:21:25.928Z,15.92
2023-08-29T21:23:52.632Z,15.94
2023-08-29T21:26:19.286Z,15.90
2023-08-29T21:28:45.966Z,15.92
2023-08-29T21:31:12.589Z,15.83
2023-08-29T21:33:39.218Z,15.82
2023-08-29T21:36:05.982Z,15.80
2023-08-29T21:38:34.282Z,15.64
2023-08-29T21:41:06.276Z,15.54
2023-08-29T21:43:33.018Z,15.48
2023-08-29T21:46:00.573Z,15.46
2023-08-29T21:48:30.817Z,15.43
2023-08-29T21:53:44.549Z,15.32
2023-08-29T21:56:12.007Z,15.27
2023-08-29T21:58:38.675Z,15.28
2023-08-29T22:01:05.467Z,15.28
2023-08-29T22:03:32.115Z,15.28
2023-08-29T22:05:58.766Z,15.29
2023-08-29T22:08:27.476Z,15.30
2023-08-29T22:10:54.359Z,15.35
2023-08-29T22:13:21.069Z,15.38
2023-08-29T22:15:49.845Z,15.41
2023-08-29T22:18:16.530Z,15.46
2023-08-29T22:20:43.150Z,15.46
2023-08-29T22:23:09.743Z,15.42
2023-08-29T22:25:36.507Z,15.44
2023-08-29T22:28:03.217Z,15.42
2023-08-29T22:30:29.856Z,15.41
2023-08-29T22:32:56.913Z,15.43
2023-08-29T22:35:23.585Z,15.48
2023-08-29T22:37:50.202Z,15.47
2023-08-29T22:40:17.724Z,15.48
2023-08-29T22:42:45.909Z,15.53
2023-08-29T22:45:13.473Z,15.59
2023-08-29T22:47:40.113Z,15.58
2023-08-29T22:50:07.535Z,15.56
2023-08-29T22:52:34.144Z,15.49
2023-08-29T22:55:00.803Z,15.48
2023-08-29T22:57:27.382Z,15.40
2023-08-29T22:59:53.958Z,15.33
2023-08-29T23:02:20.698Z,15.32
2023-08-29T23:04:47.290Z,15.36
2023-08-29T23:07:13.940Z,15.40
2023-08-29T23:09:43.742Z,15.48
2023-08-29T23:12:10.393Z,15.51
2023-08-29T23:14:36.993Z,15.53
2023-08-29T23:17:06.014Z,15.53
2023-08-29T23:19:32.630Z,15.54
2023-08-29T23:21:59.361Z,15.55
2023-08-29T23:24:25.969Z,15.50
2023-08-29T23:26:55.258Z,15.52
2023-08-29T23:29:21.859Z,15.55
2023-08-29T23:31:48.500Z,15.52
2023-08-29T23:34:15.147Z,15.52
2023-08-29T23:36:41.748Z,15.51
2023-08-29T23:39:08.559Z,15.48
2023-08-29T23:41:35.393Z,15.49
2023-08-29T23:44:02.611Z,15.51
2023-08-29T23:46:29.345Z,15.52
2023-08-29T23:48:56.037Z,15.52
2023-08-29T23:51:23.550Z,15.50
2023-08-29T23:53:51.156Z,15.48
2023-08-29T23:56:18.264Z,15.48
2023-08-29T23:58:45.314Z,15.51
